Aeroporto :
LOGIN :

Iscrizione | Disclaimer

   EN    FR    IT 

 










Sommario :    VFR   VFR Marginale   IFR   IFR Intensivo   IFR Molto Intensivo
Visibilità : 
Base nubi : 
>= 8 km
>= 3000ft
5 / 8 km
1000 / 3000 ft
1500m / 5 km
500 / 1000 ft
800 / 1500m
200 / 500 ft
< 800m
< 200 ft
Simboli :   Temporali  Nebbia  Neve Forte  Precipitazioni Forti  Vento > 20 kt
SIGMETs :   Varie  Temporali  Ghiacco  Turbolenza  Onda orograficha  Ceneri Vulcaniche







- Altitudine del aeroporto : 306 ft
- Codice IATA : EMA
- Carte del aeroporto


EGNX - Nottingham East Midlands

ULTIMO METAR :
  • 261920Z 05011KT 9999 BKN012 13/11 Q1031

METARs OBSOLETI :
  • 261850Z 05011KT 9999 BKN012 13/11 Q1031
  • 261820Z 04010KT 360V060 9999 BKN012 13/11 Q1031
  • 261750Z 05012KT 9999 BKN016 14/11 Q1031
  • 261720Z 04010KT 010V070 9999 BKN016 14/12 Q1031
  • 261650Z 05011KT 9999 BKN015 14/12 Q1031

TAF TAF EGNX
Valido dal 26 a 18 ore il 27 a 18 ore UTC


261703Z 2618/2718 06011KT 9999 SCT012 BKN018
TEMPO 2618/2622 BKN012
BECMG 2622/2701 BKN010
TEMPO 2623/2707 BKN006
BECMG 2708/2711 CAVOK
ATIS : +44 1332 852 852 (ext 3201)
Nessun NOTAM noto per questo aeroporto.



MetMap, La meteo Aeronautica in un colpo d'occhio ! - Copyright ORBIFLY Dicembre 2007 - Disclaimer

ORBIFLY MET'MAP TEAM :

Programmazione e sviluppo : Alexandra Zaïnal
Concezione e sviluppo : Baudouin d'Aumeries
Co-Programmazione e sviluppo : Marc-Olivier Méhu
Supporto tecnico e logistico : Manuel Goepfert
Aiuto per la traduzione : Arnaldo La Scala

Contatto : metmap@orbifly.com




FONTI E CREDITI :

   NOAA